LGPZLGKR

Guest
Details From LGPZ - Aktio
To LGKR - Ioannis Kapodistrias Intl
Flight Number -
Tags Routegen Generated
Created
Modified
Stats Distance 62 nm / 114 km
Max Altitude 100 ft / 30 m
Waypoints 11
Social Downloads 5
Likes 0
Share

Download

Looking for another format? Having issues loading an existing format? Contact us
Advertisement - Login to hide

Notes

Departing runway 24 LGPZ. Arriving runway 16 LGKR.

Route

LGPZ +38.89_+020.66 +38.89_+020.59 +38.91_+020.52 +38.94_+020.46 +38.99_+020.42 +39.21_+020.23 +39.43_+020.03 +39.47_+019.97 +39.52_+019.93 LGKR

ID Type Via Altitude (ft/m) Position (lat/lon) Dist (leg/tot) Name
O LGPZ APT - 0 / 0 38.92060 / 20.74997 - / 0 nm
+38.89_+020.66 LATLON - 100 / 30 38.89324 / 20.66388 4 / 4 nm
+38.89_+020.59 LATLON - 100 / 30 38.89101 / 20.58956 3 / 7 nm
+38.91_+020.52 LATLON - 100 / 30 38.90870 / 20.51872 3 / 11 nm
+38.94_+020.46 LATLON - 100 / 30 38.94417 / 20.45992 3 / 14 nm
+38.99_+020.42 LATLON - 100 / 30 38.99316 / 20.42024 3 / 18 nm
+39.21_+020.23 LATLON - 100 / 30 39.21381 / 20.22515 16 / 34 nm
+39.43_+020.03 LATLON - 100 / 30 39.43445 / 20.03006 16 / 50 nm
+39.47_+019.97 LATLON - 100 / 30 39.47075 / 19.97165 3 / 53 nm
+39.52_+019.93 LATLON - 100 / 30 39.52028 / 19.93281 3 / 57 nm
O LGKR APT - 0 / 0 39.59128 / 19.91461 4 / 61 nm

Altitude Profile

Advertisement - Login to hide

LGPZ

Details ICAO LGPZ (PVK)
Name Aktion
Region Greece
Timezone Europe/Athens (UTC+3.0)
Stats Elevation 11 ft / 3 m (AMSL)
Location 38.925100° 20.765800°
Runways 2
Magnetic Variation 4.488° E

METAR

LGPZ 120620Z 04005KT CAVOK 13/10 Q1024

Decode

TAF

TAF LGPZ 120500Z 1206/1306 VRB05KT 9999 FEW020 TEMPO 1212/1218 27012KT

Decode

Departure Runways

ID Width Length Bearing (true/mag) Surface Threshold Overrun Markings Lighting
07L 145 ft / 44 m 9,428 ft / 2,874 m 67.99° / 63.50° ASPHALT 0 ft / 0 m 0 ft / 0 m PREC-APP EDGE THRESHOLD MALSF
07R 95 ft / 29 m 8,306 ft / 2,532 m 67.99° / 63.50° ASPHALT 0 ft / 0 m 0 ft / 0 m VISUAL
25L 95 ft / 29 m 8,306 ft / 2,532 m 248.01° / 243.52° ASPHALT 0 ft / 0 m 0 ft / 0 m VISUAL
25R 145 ft / 44 m 9,428 ft / 2,874 m 248.01° / 243.52° ASPHALT 459 ft / 140 m 302 ft / 92 m PREC-APP EDGE THRESHOLD MALSF

LGKR

Details ICAO LGKR (CFU)
Name IOANNIS KAPODISTRIAS INTL
Region Greece
Timezone Europe/Athens (UTC+3.0)
Stats Elevation 0 ft / 0 m (AMSL)
Location 39.602300° 19.912000°
Runways 1
Magnetic Variation 4.430° E

METAR

LGKR 120620Z 00000KT CAVOK 11/09 Q1023 NOSIG

Decode

TAF

TAF LGKR 120500Z 1206/1306 14010KT 9999 FEW018 SCT080 TEMPO 1215/1221 23010KT BECMG 1219/1221 FEW018 BKN080

Decode

Destination Runways

ID Width Length Bearing (true/mag) Surface Threshold Overrun Markings Lighting
17 148 ft / 45 m 7,604 ft / 2,318 m 168.78° / 164.35° ASPHALT 1,342 ft / 409 m 0 ft / 0 m PREC-APP EDGE THRESHOLD ALSF-I
35 148 ft / 45 m 7,604 ft / 2,318 m 348.79° / 344.36° ASPHALT 0 ft / 0 m 0 ft / 0 m PREC-APP EDGE THRESHOLD SALS REIL-OMNI

Popular Alternatives